Time;durP1;ratioP1;P1;durP2;ratioP2;P2;SDS_P1;SDS_P2;PMS_P1;PMS_P2;Temp;Humidity;BMP_temperature;BMP_pressure;BME280_temperature;BME280_humidity;BME280_pressure;Samples;Min_cycle;Max_cycle;Signal;HPM_P1;HPM_P2
2022/09/30 00:01:39;;;;;;;35.38;21.42;;;;;;;9.48;70.78;97672.22;5013255;28;20041;-76
2022/09/30 00:04:06;;;;;;;32.65;19.45;;;;;;;9.50;70.22;97667.25;5013775;28;20536;-75
2022/09/30 00:06:36;;;;;;;29.27;19.65;;;;;;;9.52;70.71;97668.59;5015093;28;20047;-76
2022/09/30 00:09:02;;;;;;;33.45;20.10;;;;;;;9.54;70.52;97662.78;5008934;28;20026;-76
2022/09/30 00:11:31;;;;;;;27.17;18.13;;;;;;;9.56;70.90;97665.25;5011665;28;20022;-76
2022/09/30 00:13:57;;;;;;;25.92;16.33;;;;;;;9.57;70.93;97659.44;5012778;28;20113;-75
2022/09/30 00:16:24;;;;;;;27.02;17.45;;;;;;;9.57;70.66;97666.84;5015208;28;20026;-76
2022/09/30 00:18:50;;;;;;;25.85;16.10;;;;;;;9.58;70.85;97668.47;5014962;28;20037;-75
2022/09/30 00:21:16;;;;;;;24.35;16.73;;;;;;;9.59;70.18;97679.09;5011406;28;20397;-75
2022/09/30 00:23:43;;;;;;;27.20;17.83;;;;;;;9.61;70.61;97678.78;5015143;28;20038;-76
2022/09/30 00:26:14;;;;;;;28.95;18.67;;;;;;;9.61;70.69;97681.53;5013615;28;20060;-75
2022/09/30 00:28:41;;;;;;;26.35;17.10;;;;;;;9.61;70.09;97696.03;5015636;28;20050;-75
2022/09/30 00:31:11;;;;;;;27.42;17.65;;;;;;;9.61;70.39;97697.94;5013348;28;20018;-76
2022/09/30 00:33:37;;;;;;;28.42;18.40;;;;;;;9.58;70.85;97696.66;5017325;28;20021;-76
2022/09/30 00:36:04;;;;;;;27.45;17.63;;;;;;;9.59;70.94;97708.38;5013678;28;20026;-75
2022/09/30 00:38:31;;;;;;;26.13;17.10;;;;;;;9.58;70.06;97701.31;5016612;28;20367;-75
2022/09/30 00:40:58;;;;;;;27.30;16.48;;;;;;;9.59;70.56;97695.53;5007595;28;20040;-76
2022/09/30 00:43:40;;;;;;;26.90;17.15;;;;;;;9.58;70.16;97699.38;5015950;28;20029;-76
2022/09/30 00:46:17;;;;;;;23.00;16.77;;;;;;;9.60;70.34;97690.84;5013998;28;20025;-75
2022/09/30 00:48:44;;;;;;;27.02;16.48;;;;;;;9.61;70.85;97696.03;5012640;28;20058;-75
2022/09/30 00:51:10;;;;;;;24.75;15.73;;;;;;;9.63;70.51;97695.72;5012759;28;20033;-74
2022/09/30 00:53:47;;;;;;;24.10;16.58;;;;;;;9.63;70.21;97707.50;5017699;28;20033;-75
2022/09/30 00:56:17;;;;;;;24.90;15.70;;;;;;;9.63;70.99;97706.66;5008178;28;20439;-75
2022/09/30 00:58:48;;;;;;;25.90;16.02;;;;;;;9.64;70.53;97705.53;5014144;28;20030;-75
2022/09/30 01:01:14;;;;;;;28.95;16.80;;;;;;;9.62;70.55;97702.31;5011348;28;20042;-75
2022/09/30 01:04:19;;;;;;;31.27;17.90;;;;;;;9.61;70.75;97692.47;5011951;28;20544;-76
2022/09/30 01:06:45;;;;;;;34.78;18.25;;;;;;;9.64;70.39;97691.84;5005035;28;20038;-75
2022/09/30 01:09:11;;;;;;;27.13;16.55;;;;;;;9.64;70.79;97691.84;5010469;28;20038;-75
2022/09/30 01:11:37;;;;;;;26.15;16.23;;;;;;;9.66;70.88;97695.91;5012402;28;20052;-75
2022/09/30 01:14:15;;;;;;;27.05;17.27;;;;;;;9.66;70.37;97686.88;5013418;28;20104;-75
2022/09/30 01:17:09;;;;;;;24.33;16.58;;;;;;;9.63;70.61;97690.22;5015389;28;20041;-76
2022/09/30 01:19:40;;;;;;;25.92;15.38;;;;;;;9.63;70.49;97687.50;5014472;28;20041;-75
2022/09/30 01:22:18;;;;;;;31.52;17.92;;;;;;;9.63;70.25;97692.97;5019514;28;20418;-76
2022/09/30 01:25:21;;;;;;;29.70;17.20;;;;;;;9.64;70.64;97691.84;5014795;28;20227;-76
2022/09/30 01:28:03;;;;;;;32.33;17.05;;;;;;;9.67;70.75;97689.31;5014585;28;20044;-76
2022/09/30 01:31:07;;;;;;;29.02;15.75;;;;;;;9.69;71.18;97705.44;5011952;28;20029;-75
2022/09/30 01:33:54;;;;;;;22.27;14.30;;;;;;;9.67;70.44;97696.72;4956278;28;20047;-75
2022/09/30 01:36:25;;;;;;;23.13;13.75;;;;;;;9.65;70.97;97707.16;4956777;28;20154;-75
2022/09/30 01:39:29;;;;;;;20.20;14.60;;;;;;;9.61;70.52;97706.97;4998661;28;20449;-76
2022/09/30 01:42:06;;;;;;;23.40;15.23;;;;;;;9.60;71.03;97704.53;5016430;28;20028;-75
2022/09/30 01:44:39;;;;;;;26.02;14.88;;;;;;;9.62;71.00;97713.25;5014499;28;20493;-76
2022/09/30 01:47:16;;;;;;;23.27;14.82;;;;;;;9.62;71.05;97711.34;5016038;28;20033;-75
2022/09/30 01:49:48;;;;;;;20.98;14.32;;;;;;;9.65;71.18;97710.72;5013783;28;20045;-76
2022/09/30 01:52:22;;;;;;;23.80;14.77;;;;;;;9.68;71.14;97712.03;5012236;28;20048;-76
2022/09/30 01:54:58;;;;;;;24.52;14.57;;;;;;;9.71;70.70;97707.88;5018834;28;20038;-76
2022/09/30 01:57:29;;;;;;;26.40;15.65;;;;;;;9.73;71.06;97700.97;5016613;28;20284;-75
2022/09/30 02:00:08;;;;;;;26.10;15.75;;;;;;;9.74;70.97;97710.78;5013038;28;20105;-76
2022/09/30 02:02:52;;;;;;;24.52;15.27;;;;;;;9.77;71.58;97712.13;5015749;28;20035;-76
2022/09/30 02:05:40;;;;;;;24.98;18.60;;;;;;;9.78;70.95;97714.53;5017126;28;20040;-75
2022/09/30 02:08:33;;;;;;;22.15;14.85;;;;;;;9.75;70.86;97717.88;5015192;28;20026;-76
2022/09/30 02:11:14;;;;;;;20.23;14.40;;;;;;;9.71;70.77;97722.34;5014418;28;20080;-75
2022/09/30 02:13:50;;;;;;;20.40;14.48;;;;;;;9.70;70.68;97719.94;5012763;28;20072;-76
2022/09/30 02:16:31;;;;;;;20.88;14.80;;;;;;;9.69;71.64;97727.34;5015070;28;20029;-75
2022/09/30 02:19:08;;;;;;;18.33;14.15;;;;;;;9.71;71.53;97729.78;5016652;28;20025;-75
2022/09/30 02:21:39;;;;;;;21.38;14.30;;;;;;;9.72;70.97;97723.97;5015523;28;20159;-75
2022/09/30 02:24:09;;;;;;;21.92;15.10;;;;;;;9.75;71.26;97731.59;5015403;28;20382;-76
2022/09/30 02:26:42;;;;;;;20.55;14.45;;;;;;;9.78;71.15;97725.50;5012735;28;20025;-75
2022/09/30 02:29:14;;;;;;;21.92;14.15;;;;;;;9.82;71.45;97728.41;5013208;28;20061;-76
2022/09/30 02:31:42;;;;;;;19.30;14.70;;;;;;;9.86;72.06;97728.63;5012735;28;20045;-76
2022/09/30 02:34:13;;;;;;;22.45;14.73;;;;;;;9.87;71.50;97727.50;5012872;28;20026;-76
2022/09/30 02:36:54;;;;;;;22.50;14.98;;;;;;;9.91;72.04;97728.50;5014357;28;20029;-76
2022/09/30 02:39:41;;;;;;;21.48;15.02;;;;;;;9.93;71.77;97718.03;5013433;28;20480;-76
2022/09/30 02:42:30;;;;;;;19.15;13.75;;;;;;;9.95;72.07;97713.88;5016067;28;20033;-76
2022/09/30 02:45:02;;;;;;;;;;;;;;;10.00;72.21;97718.41;5009419;28;20103;-76
2022/09/30 02:47:43;;;;;;;20.75;14.02;;;;;;;10.00;71.13;97714.88;5012924;28;19952;-75
2022/09/30 02:50:19;;;;;;;21.08;14.10;;;;;;;10.00;71.63;97718.41;5011883;28;20122;-76
2022/09/30 02:53:17;;;;;;;21.67;14.15;;;;;;;10.01;71.51;97719.22;5015981;28;20553;-76
2022/09/30 02:56:12;;;;;;;19.48;13.23;;;;;;;10.00;71.77;97721.13;5016874;28;20593;-76
2022/09/30 02:58:39;;;;;;;20.58;12.98;;;;;;;10.03;71.46;97723.25;5017574;28;20497;-76
2022/09/30 03:01:15;;;;;;;22.77;15.50;;;;;;;10.02;71.20;97729.84;5012224;28;20030;-76
2022/09/30 03:03:57;;;;;;;26.80;15.07;;;;;;;10.05;71.41;97725.72;5017503;28;20491;-76
2022/09/30 03:06:23;;;;;;;28.88;16.48;;;;;;;10.06;71.84;97728.13;5014306;28;20115;-76
2022/09/30 03:08:51;;;;;;;30.92;15.02;;;;;;;10.05;71.83;97737.47;5014768;28;20037;-76
2022/09/30 03:11:22;;;;;;;22.40;14.25;;;;;;;10.05;71.40;97737.47;5012258;28;20087;-76
2022/09/30 03:14:09;;;;;;;22.38;14.50;;;;;;;10.03;71.39;97731.47;5016349;28;20026;-76
2022/09/30 03:16:40;;;;;;;20.63;14.48;;;;;;;10.03;71.28;97736.97;5012878;28;20413;-76
2022/09/30 03:19:37;;;;;;;23.30;13.70;;;;;;;10.03;71.82;97738.91;5014667;28;20080;-75
2022/09/30 03:22:05;;;;;;;24.67;15.10;;;;;;;10.06;71.44;97736.34;4988773;28;20041;-76
2022/09/30 03:25:12;;;;;;;23.95;15.77;;;;;;;10.08;71.59;97730.56;5012644;28;20045;-76
2022/09/30 03:28:04;;;;;;;24.75;14.60;;;;;;;10.10;71.87;97723.63;5001213;28;20394;-76
2022/09/30 03:30:34;;;;;;;26.08;15.38;;;;;;;10.13;71.98;97736.72;5014004;28;20045;-75
2022/09/30 03:33:11;;;;;;;25.92;16.00;;;;;;;10.12;71.74;97732.34;5012723;28;20025;-75
2022/09/30 03:35:42;;;;;;;22.45;14.63;;;;;;;10.15;71.49;97733.69;5013661;28;20089;-75
2022/09/30 03:38:26;;;;;;;22.23;14.80;;;;;;;10.15;71.62;97732.84;5014595;28;20078;-76
2022/09/30 03:41:03;;;;;;;22.42;15.38;;;;;;;10.15;71.64;97724.63;5012735;28;20037;-76
2022/09/30 03:43:48;;;;;;;21.63;14.35;;;;;;;10.15;71.95;97728.22;5015905;28;20083;-75
2022/09/30 03:46:33;;;;;;;20.65;13.55;;;;;;;10.18;72.22;97729.50;5011728;28;20029;-75
2022/09/30 03:49:03;;;;;;;22.42;14.38;;;;;;;10.19;71.72;97726.44;5012857;28;20478;-75
2022/09/30 03:51:30;;;;;;;19.83;14.35;;;;;;;10.18;71.87;97727.59;5015731;28;20026;-75
2022/09/30 03:53:57;;;;;;;22.48;14.35;;;;;;;10.19;72.05;97733.84;5011004;28;20022;-75
2022/09/30 03:56:30;;;;;;;20.58;15.40;;;;;;;10.20;72.78;97735.47;5015908;28;20573;-76
2022/09/30 03:58:59;;;;;;;23.60;15.18;;;;;;;10.19;71.87;97737.41;5014703;28;20030;-75
2022/09/30 04:01:25;;;;;;;19.58;14.65;;;;;;;10.19;71.71;97733.84;5010312;28;20516;-76
2022/09/30 04:03:51;;;;;;;21.58;14.50;;;;;;;10.20;71.80;97738.22;5016297;28;20038;-75
2022/09/30 04:06:21;;;;;;;20.40;13.70;;;;;;;10.22;72.50;97738.72;5014270;28;20154;-76
2022/09/30 04:08:48;;;;;;;19.77;13.77;;;;;;;10.23;72.19;97741.13;5015642;28;20035;-75
2022/09/30 04:11:13;;;;;;;24.60;14.60;;;;;;;10.24;72.05;97742.75;5011002;28;20409;-76
2022/09/30 04:13:39;;;;;;;25.00;14.50;;;;;;;10.24;72.28;97733.75;5011653;28;20029;-76
2022/09/30 04:16:06;;;;;;;22.95;14.27;;;;;;;10.26;72.47;97740.50;5012673;28;20036;-76
2022/09/30 04:18:32;;;;;;;21.13;14.55;;;;;;;10.26;71.90;97742.47;5014530;28;20056;-76
2022/09/30 04:20:58;;;;;;;21.00;13.45;;;;;;;10.26;71.91;97747.94;5010286;28;20057;-75
2022/09/30 04:23:24;;;;;;;20.58;13.90;;;;;;;10.23;72.01;97749.34;5013866;28;20037;-76
2022/09/30 04:25:53;;;;;;;21.73;13.82;;;;;;;10.26;72.04;97745.19;5016551;28;20474;-75
2022/09/30 04:28:19;;;;;;;20.30;13.25;;;;;;;10.28;72.12;97753.91;5014824;28;20053;-76
2022/09/30 04:30:44;;;;;;;21.30;13.38;;;;;;;10.30;72.33;97753.59;5011580;28;20220;-76
2022/09/30 04:33:11;;;;;;;22.27;13.48;;;;;;;10.30;72.53;97759.91;5014170;28;20057;-76
2022/09/30 04:35:37;;;;;;;17.70;12.75;;;;;;;10.33;73.16;97764.75;5015781;28;20112;-75
2022/09/30 04:38:06;;;;;;;18.88;13.88;;;;;;;10.35;71.73;97764.44;5011210;28;20072;-76
2022/09/30 04:40:31;;;;;;;21.15;13.98;;;;;;;10.39;72.57;97759.97;5018082;28;20033;-75
2022/09/30 04:42:58;;;;;;;19.95;13.02;;;;;;;10.41;72.56;97758.53;5012556;28;20040;-76
2022/09/30 04:45:24;;;;;;;19.38;13.57;;;;;;;10.45;72.56;97766.13;5013836;28;20439;-75
2022/09/30 04:47:51;;;;;;;20.35;13.40;;;;;;;10.46;72.40;97765.03;5015171;28;20057;-76
2022/09/30 04:50:17;;;;;;;19.58;13.57;;;;;;;10.47;72.53;97763.91;5017208;28;20037;-76
2022/09/30 04:52:43;;;;;;;20.65;13.55;;;;;;;10.49;72.46;97769.88;5017098;28;20045;-76
2022/09/30 04:55:09;;;;;;;21.83;14.15;;;;;;;10.49;72.17;97764.41;5019229;28;20490;-75
2022/09/30 04:57:35;;;;;;;19.30;13.55;;;;;;;10.50;73.19;97760.53;5018934;28;20390;-75
2022/09/30 05:00:01;;;;;;;20.92;13.75;;;;;;;10.53;72.26;97765.38;5014663;28;20037;-76
2022/09/30 05:02:26;;;;;;;19.63;13.80;;;;;;;10.54;72.98;97767.00;5020678;28;20028;-76
2022/09/30 05:04:54;;;;;;;19.27;13.95;;;;;;;10.54;72.71;97767.84;5018727;28;20037;-75
2022/09/30 05:07:20;;;;;;;22.27;15.18;;;;;;;10.55;72.32;97765.88;5020855;28;20029;-76
2022/09/30 05:09:45;;;;;;;23.75;14.77;;;;;;;10.57;71.92;97771.88;5017363;28;21414;-76
2022/09/30 05:12:11;;;;;;;25.70;15.65;;;;;;;10.60;72.99;97771.25;5014722;28;20041;-75
2022/09/30 05:14:36;;;;;;;26.20;15.95;;;;;;;10.60;71.82;97768.50;5018907;28;20033;-76
2022/09/30 05:17:02;;;;;;;26.23;16.02;;;;;;;10.60;72.71;97775.94;5017262;28;20026;-75
2022/09/30 05:19:28;;;;;;;24.80;15.48;;;;;;;10.59;72.10;97779.81;5018397;28;20033;-75
2022/09/30 05:21:53;;;;;;;21.92;14.93;;;;;;;10.57;72.29;97783.66;5016549;28;20042;-76
2022/09/30 05:24:19;;;;;;;26.33;15.63;;;;;;;10.60;72.45;97786.91;5020145;28;20034;-76
2022/09/30 05:26:44;;;;;;;26.23;16.92;;;;;;;10.57;72.27;97788.31;5014133;28;20042;-75
2022/09/30 05:29:10;;;;;;;21.05;15.18;;;;;;;10.56;72.52;97794.94;5017548;28;20058;-76
2022/09/30 05:31:35;;;;;;;23.05;15.63;;;;;;;10.57;72.20;97788.31;5014969;28;20047;-76
2022/09/30 05:34:01;;;;;;;23.63;15.13;;;;;;;10.58;72.21;97792.69;5020592;28;20021;-76
2022/09/30 05:36:26;;;;;;;23.05;15.48;;;;;;;10.60;72.40;97803.34;5018962;28;20048;-75
2022/09/30 05:38:53;;;;;;;21.30;14.18;;;;;;;10.62;72.53;97809.31;5017398;28;20045;-75
2022/09/30 05:41:23;;;;;;;20.85;14.63;;;;;;;10.62;73.21;97807.41;5015045;28;20030;-75
2022/09/30 05:43:48;;;;;;;;;;;;;;;10.64;72.47;97807.06;5013960;28;20026;-75
2022/09/30 05:46:18;;;;;;;20.42;13.70;;;;;;;10.62;72.79;97804.66;5019662;28;20273;-76
2022/09/30 05:48:44;;;;;;;21.63;14.10;;;;;;;10.60;72.29;97809.63;5014320;28;20038;-75
2022/09/30 05:51:09;;;;;;;21.55;13.90;;;;;;;10.59;72.52;97816.25;5015798;28;20030;-76
2022/09/30 05:53:37;;;;;;;23.33;14.85;;;;;;;10.59;72.99;97810.75;5016052;28;20033;-75
2022/09/30 05:56:07;;;;;;;19.98;14.50;;;;;;;10.57;72.64;97815.75;5022188;28;20025;-75
2022/09/30 05:58:32;;;;;;;24.83;14.77;;;;;;;10.56;73.05;97816.88;5013706;28;20049;-75
2022/09/30 06:01:05;;;;;;;21.77;14.88;;;;;;;10.60;72.40;97817.88;5013336;28;20104;-76
2022/09/30 06:03:30;;;;;;;22.52;15.55;;;;;;;10.63;72.75;97817.25;5013895;28;20041;-76
2022/09/30 06:05:56;;;;;;;22.45;15.70;;;;;;;10.68;73.49;97816.28;5019640;28;20029;-76
2022/09/30 06:08:22;;;;;;;22.13;15.35;;;;;;;10.71;73.51;97816.50;5017298;28;20032;-75
2022/09/30 06:10:48;;;;;;;21.17;14.60;;;;;;;10.76;73.29;97812.00;5017898;28;21163;-76
2022/09/30 06:13:13;;;;;;;22.33;14.68;;;;;;;10.79;73.12;97822.34;5016452;28;20596;-76
2022/09/30 06:15:40;;;;;;;21.10;14.23;;;;;;;10.83;73.43;97829.63;5017081;28;20030;-76
2022/09/30 06:18:06;;;;;;;22.13;14.30;;;;;;;10.86;73.38;97828.19;5019273;28;20493;-75
2022/09/30 06:20:32;;;;;;;21.13;14.55;;;;;;;10.91;73.64;97821.78;5016625;28;20033;-76
2022/09/30 06:23:01;;;;;;;21.25;14.45;;;;;;;10.95;73.29;97826.31;5015268;28;20397;-75
2022/09/30 06:25:28;;;;;;;24.88;15.70;;;;;;;10.97;73.40;97835.03;5016512;28;20358;-75
2022/09/30 06:27:53;;;;;;;21.95;14.65;;;;;;;11.01;73.14;97829.72;5015941;28;20534;-76
2022/09/30 06:30:19;;;;;;;23.25;14.93;;;;;;;11.04;73.17;97833.78;5012813;28;20057;-76
2022/09/30 06:32:44;;;;;;;23.33;15.15;;;;;;;11.06;73.34;97837.81;5017771;28;20034;-76
2022/09/30 06:35:10;;;;;;;21.08;14.38;;;;;;;11.08;73.48;97837.50;5017762;28;20038;-76
2022/09/30 06:37:37;;;;;;;21.83;14.95;;;;;;;11.09;73.93;97845.41;5017210;28;20026;-75
2022/09/30 06:40:06;;;;;;;23.00;15.25;;;;;;;11.11;73.60;97843.16;5016422;28;20036;-76
2022/09/30 06:42:32;;;;;;;22.93;14.77;;;;;;;11.16;73.60;97853.22;5011592;28;20030;-76
2022/09/30 06:44:58;;;;;;;23.75;15.60;;;;;;;11.16;73.44;97850.47;5015851;28;20763;-76
2022/09/30 06:47:23;;;;;;;22.92;15.48;;;;;;;11.19;73.91;97849.03;5016754;28;20116;-76
2022/09/30 06:49:51;;;;;;;24.10;15.50;;;;;;;11.20;73.30;97854.22;5013960;28;20064;-76
2022/09/30 06:52:17;;;;;;;24.38;16.77;;;;;;;11.21;73.64;97850.31;5016598;28;20460;-76
2022/09/30 06:54:43;;;;;;;24.48;17.08;;;;;;;11.24;73.59;97862.63;5017398;28;20039;-77
2022/09/30 06:57:08;;;;;;;25.10;16.50;;;;;;;11.26;73.69;97852.13;5017064;28;20138;-75
2022/09/30 06:59:35;;;;;;;24.75;16.65;;;;;;;11.28;73.65;97856.16;5015010;28;20029;-75
2022/09/30 07:02:00;;;;;;;27.52;17.73;;;;;;;11.30;73.54;97850.38;5015510;28;20040;-74
2022/09/30 07:04:26;;;;;;;25.20;16.65;;;;;;;11.34;73.41;97854.13;5013616;28;20830;-75
2022/09/30 07:06:52;;;;;;;25.65;16.88;;;;;;;11.39;74.00;97858.66;5018462;28;20128;-76
2022/09/30 07:09:17;;;;;;;26.90;17.27;;;;;;;11.41;74.13;97859.94;5012380;28;20041;-74
2022/09/30 07:11:43;;;;;;;27.52;17.58;;;;;;;11.45;73.46;97858.19;5013123;28;20064;-75
2022/09/30 07:14:09;;;;;;;24.73;16.67;;;;;;;11.48;73.52;97856.75;5014385;28;20143;-74
2022/09/30 07:16:34;;;;;;;24.45;16.85;;;;;;;11.52;73.26;97849.50;5012511;28;20120;-75
2022/09/30 07:19:02;;;;;;;23.88;16.58;;;;;;;11.55;73.95;97848.88;5013426;28;20104;-75
2022/09/30 07:21:29;;;;;;;23.08;15.57;;;;;;;11.58;73.37;97850.97;5010673;28;20037;-75
2022/09/30 07:23:55;;;;;;;25.15;16.52;;;;;;;11.62;73.98;97860.19;5009968;28;20040;-75
2022/09/30 07:26:23;;;;;;;21.27;14.57;;;;;;;11.66;73.51;97856.81;5013655;28;20061;-75
2022/09/30 07:28:50;;;;;;;22.45;14.93;;;;;;;11.68;73.75;97849.06;5012631;28;20057;-73
2022/09/30 07:31:18;;;;;;;25.27;15.88;;;;;;;11.72;74.16;97856.34;5012584;28;20073;-74
2022/09/30 07:33:44;;;;;;;22.15;15.40;;;;;;;11.76;73.94;97859.25;5016356;28;20045;-75
2022/09/30 07:36:11;;;;;;;23.77;15.70;;;;;;;11.82;73.65;97859.94;5011366;28;20436;-74
2022/09/30 07:38:39;;;;;;;23.70;15.48;;;;;;;11.86;74.05;97852.66;5007989;28;20029;-74
2022/09/30 07:41:12;;;;;;;25.45;16.85;;;;;;;11.93;74.22;97860.44;5012232;28;20026;-75
2022/09/30 07:43:39;;;;;;;25.42;15.32;;;;;;;11.98;74.52;97861.09;5015398;28;20394;-74
2022/09/30 07:46:12;;;;;;;22.83;15.25;;;;;;;12.01;74.02;97865.97;5013408;28;20089;-75
2022/09/30 07:48:43;;;;;;;23.02;15.30;;;;;;;12.03;74.39;97868.41;5012395;28;20470;-75
2022/09/30 07:51:15;;;;;;;28.38;18.25;;;;;;;12.04;74.52;97870.00;5014730;28;20030;-75
2022/09/30 07:53:44;;;;;;;24.35;17.63;;;;;;;12.08;73.83;97872.94;5014987;28;20768;-74
2022/09/30 07:56:10;;;;;;;23.58;16.70;;;;;;;12.10;74.27;97876.19;5012297;28;20052;-74
2022/09/30 07:58:37;;;;;;;25.52;17.20;;;;;;;12.13;74.51;97881.06;5016998;28;20034;-72
2022/09/30 08:01:05;;;;;;;22.33;15.93;;;;;;;12.17;74.16;97882.03;5008882;28;20497;-75
2022/09/30 08:03:31;;;;;;;22.85;15.65;;;;;;;12.20;74.03;97884.94;5010382;28;20211;-74
2022/09/30 08:06:03;;;;;;;22.17;14.30;;;;;;;12.23;74.33;97885.44;5013353;28;20713;-75
2022/09/30 08:08:28;;;;;;;23.52;15.30;;;;;;;12.26;74.11;97884.78;5011660;28;20513;-73
2022/09/30 08:10:58;;;;;;;23.88;15.48;;;;;;;12.27;73.92;97889.16;5013749;28;20038;-74
2022/09/30 08:13:23;;;;;;;22.02;15.52;;;;;;;12.26;74.25;97893.81;5013511;28;20041;-75
2022/09/30 08:15:48;;;;;;;22.13;15.68;;;;;;;12.24;74.32;97898.03;5017589;28;20042;-75
2022/09/30 08:18:14;;;;;;;21.25;14.55;;;;;;;12.23;73.81;97896.41;5013443;28;20037;-75
2022/09/30 08:20:39;;;;;;;24.15;16.15;;;;;;;12.20;74.15;97895.94;5009146;28;20022;-76
2022/09/30 08:23:04;;;;;;;21.60;15.52;;;;;;;12.20;74.44;97898.69;5015346;28;20034;-76
2022/09/30 08:25:30;;;;;;;21.15;15.40;;;;;;;12.19;74.10;97899.81;5012163;28;20029;-75
2022/09/30 08:27:55;;;;;;;23.52;15.98;;;;;;;12.19;74.05;97904.50;5013601;28;20033;-75
2022/09/30 08:30:22;;;;;;;27.80;17.80;;;;;;;12.20;73.98;97906.13;5010678;28;20049;-75
2022/09/30 08:32:47;;;;;;;23.10;16.85;;;;;;;12.23;74.29;97910.16;5016042;28;20397;-75
2022/09/30 08:35:13;;;;;;;25.02;16.50;;;;;;;12.23;74.07;97910.16;5013623;28;20037;-75
2022/09/30 08:37:38;;;;;;;22.85;15.60;;;;;;;12.25;74.37;97916.16;5010001;28;20024;-75
2022/09/30 08:40:04;;;;;;;22.92;16.95;;;;;;;12.25;74.12;97925.19;5006873;28;20029;-74
2022/09/30 08:42:51;;;;;;;22.52;16.80;;;;;;;12.26;74.46;97917.78;5008652;28;20031;-74
2022/09/30 08:45:41;;;;;;;24.42;17.25;;;;;;;12.24;74.44;97909.84;5015535;28;20506;-74
2022/09/30 08:48:43;;;;;;;23.38;16.98;;;;;;;12.24;74.24;97911.78;5012505;28;20053;-74
2022/09/30 08:51:37;;;;;;;26.20;16.83;;;;;;;12.27;74.19;97920.19;5008113;28;20397;-75
2022/09/30 08:54:08;;;;;;;27.33;16.45;;;;;;;12.31;74.50;97912.13;5013397;28;20064;-75
2022/09/30 08:56:35;;;;;;;24.92;16.10;;;;;;;12.33;74.54;97916.16;5010711;28;20073;-76
2022/09/30 08:59:29;;;;;;;25.30;16.40;;;;;;;12.34;74.23;97920.53;5010443;28;20034;-75
2022/09/30 09:02:12;;;;;;;24.40;15.95;;;;;;;12.40;74.43;97912.97;5014265;28;20080;-75
2022/09/30 09:04:39;;;;;;;30.63;17.40;;;;;;;12.44;74.48;97913.91;5011220;28;20037;-75
2022/09/30 09:07:19;;;;;;;28.42;17.38;;;;;;;12.48;74.60;97917.63;5011969;28;20033;-75
2022/09/30 09:09:57;;;;;;;21.58;14.68;;;;;;;12.50;74.41;97918.13;5008799;28;20042;-76
2022/09/30 09:12:50;;;;;;;28.20;16.75;;;;;;;12.53;74.60;97924.94;5011429;28;20041;-75
2022/09/30 09:15:43;;;;;;;23.02;14.88;;;;;;;12.58;74.38;97926.72;5006388;28;20452;-75
2022/09/30 09:18:25;;;;;;;24.73;16.08;;;;;;;12.61;74.24;97915.88;5004315;28;20041;-77
2022/09/30 09:20:57;;;;;;;25.40;15.48;;;;;;;12.65;74.58;97925.09;5010529;28;20512;-75
2022/09/30 09:23:31;;;;;;;21.08;14.48;;;;;;;12.68;74.81;97926.41;5011069;28;20034;-75
2022/09/30 09:25:57;;;;;;;21.50;14.40;;;;;;;12.71;74.71;97934.00;5014182;28;20052;-75
2022/09/30 09:28:38;;;;;;;19.15;12.77;;;;;;;12.74;74.59;97929.78;5010308;28;20058;-77
2022/09/30 09:31:04;;;;;;;23.55;13.95;;;;;;;12.76;74.68;97928.34;5007739;28;20065;-79
2022/09/30 09:33:34;;;;;;;22.80;14.38;;;;;;;12.78;74.74;97925.25;5007678;28;20398;-78
2022/09/30 09:36:17;;;;;;;;;;;;;;;12.79;74.57;97927.69;5005683;28;20034;-78
2022/09/30 09:39:02;;;;;;;19.73;14.13;;;;;;;12.80;74.35;97934.81;5013631;28;19921;-78
2022/09/30 09:41:45;;;;;;;18.85;13.23;;;;;;;12.82;74.52;97931.72;5015934;28;20438;-78
2022/09/30 09:44:23;;;;;;;19.17;13.60;;;;;;;12.84;74.67;97939.69;5012653;28;20044;-78
2022/09/30 09:47:12;;;;;;;20.02;13.52;;;;;;;12.85;74.58;97944.03;5015684;28;20040;-75
2022/09/30 09:50:02;;;;;;;;;;;;;;;12.90;74.69;97941.09;5011183;28;20145;-74
2022/09/30 09:52:51;;;;;;;;;;;;;;;12.93;74.49;97948.72;5006726;28;20293;-75
2022/09/30 09:55:20;;;;;;;25.75;16.92;;;;;;;12.89;74.31;97954.06;5010275;28;19925;-77
2022/09/30 09:57:46;;;;;;;25.65;17.33;;;;;;;12.84;74.48;97954.22;5010204;28;20183;-76
2022/09/30 10:03:24;;;;;;;22.90;15.75;;;;;;;12.74;74.35;97943.53;5009527;28;20076;-77
2022/09/30 10:06:02;;;;;;;24.80;16.52;;;;;;;12.69;74.43;97960.19;5010498;28;20030;-79
2022/09/30 10:08:32;;;;;;;26.27;18.85;;;;;;;12.67;75.05;97957.78;5011534;28;20029;-79
2022/09/30 10:11:26;;;;;;;23.67;16.25;;;;;;;12.63;74.30;97957.59;5010615;28;20087;-78
2022/09/30 10:13:57;;;;;;;26.80;17.45;;;;;;;12.60;74.52;97965.72;5010972;28;20695;-75
2022/09/30 10:16:28;;;;;;;23.40;15.95;;;;;;;12.59;74.48;97967.66;5012419;28;20041;-76
2022/09/30 10:18:54;;;;;;;23.05;15.75;;;;;;;12.58;74.73;97963.28;5009223;28;20094;-77
2022/09/30 10:21:25;;;;;;;21.95;15.88;;;;;;;12.60;74.60;97968.47;5011877;28;20564;-77
2022/09/30 10:23:50;;;;;;;28.85;21.58;;;;;;;12.61;74.37;97970.06;5013224;28;20048;-76
2022/09/30 10:26:24;;;;;;;36.97;28.63;;;;;;;12.61;74.69;97970.91;5010651;28;20030;-76
2022/09/30 10:29:02;;;;;;;45.38;35.35;;;;;;;12.59;74.58;97978.66;5013491;28;20063;-76
2022/09/30 10:31:37;;;;;;;44.88;31.08;;;;;;;12.56;74.66;97971.06;5012600;28;20056;-74
2022/09/30 10:34:23;;;;;;;44.80;28.27;;;;;;;12.55;74.61;97974.94;5006911;28;20038;-73
2022/09/30 10:36:49;;;;;;;46.92;25.90;;;;;;;12.51;74.74;97973.94;5013299;28;20049;-74
2022/09/30 10:39:25;;;;;;;48.03;27.33;;;;;;;12.53;74.76;97976.38;5012287;28;20029;-75
2022/09/30 10:42:17;;;;;;;36.63;21.45;;;;;;;12.50;74.66;97980.59;5012091;28;20145;-73
2022/09/30 10:45:27;;;;;;;39.72;21.98;;;;;;;12.49;74.66;97987.22;5009569;28;20041;-74
2022/09/30 10:47:55;;;;;;;34.58;21.88;;;;;;;12.53;75.02;97984.63;5012923;28;20038;-74
2022/09/30 10:50:24;;;;;;;30.52;18.88;;;;;;;12.54;75.17;97986.25;5006963;28;20080;-72
2022/09/30 10:52:57;;;;;;;25.98;17.92;;;;;;;12.55;74.84;97988.69;5005827;28;20707;-72
2022/09/30 10:55:29;;;;;;;26.65;17.50;;;;;;;12.58;74.74;97993.56;5010049;28;20037;-76
2022/09/30 10:58:02;;;;;;;26.25;16.63;;;;;;;12.57;74.78;97996.59;5011050;28;20117;-76
2022/09/30 11:00:31;;;;;;;25.00;17.75;;;;;;;12.55;74.58;97996.94;5012563;28;20120;-75
2022/09/30 11:03:02;;;;;;;27.00;17.48;;;;;;;12.54;74.93;98000.81;5012747;28;20036;-76
2022/09/30 11:05:30;;;;;;;27.15;17.90;;;;;;;12.55;75.01;97993.38;5012614;28;20029;-76
2022/09/30 11:08:35;;;;;;;26.83;17.58;;;;;;;12.53;75.04;98001.94;5013528;28;20499;-76
2022/09/30 11:11:23;;;;;;;28.10;16.70;;;;;;;12.55;74.87;97998.88;5011765;28;20504;-74
2022/09/30 11:13:55;;;;;;;26.92;17.15;;;;;;;12.59;75.02;97997.91;5009449;28;20041;-74
2022/09/30 11:16:45;;;;;;;26.23;16.27;;;;;;;12.60;75.08;98006.97;5013878;28;20342;-74
2022/09/30 11:19:29;;;;;;;27.98;17.45;;;;;;;12.64;75.12;98005.19;5007200;28;20034;-74
2022/09/30 11:22:00;;;;;;;23.98;15.18;;;;;;;12.66;75.05;98012.00;5010807;28;20536;-74
2022/09/30 11:24:38;;;;;;;23.95;15.32;;;;;;;12.68;75.26;98011.69;5008405;28;20041;-75
2022/09/30 11:27:37;;;;;;;23.05;15.07;;;;;;;12.69;74.90;98015.22;5007650;28;20034;-75
2022/09/30 11:30:30;;;;;;;21.70;14.85;;;;;;;12.71;75.17;98008.28;5010237;28;20136;-79
2022/09/30 11:33:14;;;;;;;24.52;15.80;;;;;;;12.74;75.33;98017.84;5010872;28;20761;-76
2022/09/30 11:35:42;;;;;;;20.90;15.07;;;;;;;12.76;75.22;98013.66;5008773;28;20460;-73
2022/09/30 11:38:26;;;;;;;20.33;14.20;;;;;;;12.80;75.12;98016.56;5009998;28;20037;-73
2022/09/30 11:41:16;;;;;;;17.65;12.13;;;;;;;12.85;75.29;98010.91;5007859;28;20029;-74
2022/09/30 11:43:56;;;;;;;17.73;12.55;;;;;;;12.88;75.34;98013.00;5014252;28;20121;-73
2022/09/30 11:46:40;;;;;;;14.63;10.95;;;;;;;12.92;75.18;98013.16;5010653;28;20070;-73
2022/09/30 11:49:24;;;;;;;15.02;11.23;;;;;;;12.91;75.01;98017.88;5007778;28;20033;-78